createdAt,value
2024-03-12T00:00:35.858Z,38.50
2024-03-12T00:03:23.757Z,35.00
2024-03-12T00:05:51.793Z,32.00
2024-03-12T00:08:20.512Z,38.00
2024-03-12T00:10:48.552Z,37.00
2024-03-12T00:13:16.463Z,35.50
2024-03-12T00:15:44.359Z,36.00
2024-03-12T00:18:12.349Z,35.50
2024-03-12T00:20:40.651Z,37.00
2024-03-12T00:23:08.931Z,36.00
2024-03-12T00:25:38.426Z,40.00
2024-03-12T00:28:07.070Z,37.33
2024-03-12T00:30:35.516Z,36.00
2024-03-12T00:33:05.251Z,36.00
2024-03-12T00:35:35.144Z,34.50
2024-03-12T00:38:07.017Z,40.00
2024-03-12T00:40:35.355Z,38.00
2024-03-12T00:43:09.992Z,36.50
2024-03-12T00:45:39.030Z,36.00
2024-03-12T00:48:14.948Z,41.00
2024-03-12T00:50:46.758Z,40.00
2024-03-12T00:53:15.427Z,40.00
2024-03-12T00:55:48.694Z,35.00
2024-03-12T00:58:17.089Z,40.00
2024-03-12T01:02:01.248Z,40.00
2024-03-12T01:04:30.904Z,40.00
2024-03-12T01:07:00.522Z,39.33
2024-03-12T01:09:28.655Z,39.00
2024-03-12T01:11:56.699Z,37.00
2024-03-12T01:14:24.541Z,36.00
2024-03-12T01:16:52.503Z,36.00
2024-03-12T01:19:21.313Z,34.00
2024-03-12T01:21:50.037Z,37.00
2024-03-12T01:24:18.071Z,37.00
2024-03-12T01:26:46.647Z,25.00
2024-03-12T01:29:14.520Z,35.00
2024-03-12T01:31:42.562Z,29.00
2024-03-12T01:34:11.913Z,32.00
2024-03-12T01:36:41.289Z,35.50
2024-03-12T01:39:10.165Z,34.00
2024-03-12T01:41:43.184Z,29.00
2024-03-12T01:44:11.968Z,35.00
2024-03-12T01:46:41.212Z,33.50
2024-03-12T01:49:14.152Z,30.33
2024-03-12T01:51:42.864Z,34.00
2024-03-12T01:54:10.824Z,30.00
2024-03-12T01:56:38.780Z,26.00
2024-03-12T01:59:06.903Z,31.00
2024-03-12T02:01:34.909Z,28.00
2024-03-12T02:04:04.151Z,29.00
2024-03-12T02:06:32.347Z,30.00
2024-03-12T02:09:04.671Z,30.50
2024-03-12T02:11:32.764Z,31.00
2024-03-12T02:18:10.747Z,23.50
2024-03-12T02:20:39.628Z,22.00
2024-03-12T02:23:07.929Z,29.00
2024-03-12T02:25:35.946Z,29.00
2024-03-12T02:28:04.655Z,29.00
2024-03-12T02:30:32.792Z,26.00
2024-03-12T02:33:03.220Z,29.00
2024-03-12T02:35:31.272Z,26.50
2024-03-12T02:37:59.261Z,24.00
2024-03-12T02:40:27.179Z,26.00
2024-03-12T02:42:55.147Z,26.00
2024-03-12T02:45:24.963Z,25.00
2024-03-12T02:47:53.117Z,20.00
2024-03-12T02:50:21.345Z,23.00
2024-03-12T02:52:49.300Z,24.00
2024-03-12T02:55:20.376Z,29.00
2024-03-12T02:57:49.267Z,26.00
2024-03-12T03:00:18.607Z,24.00
2024-03-12T03:02:47.234Z,23.00
2024-03-12T03:05:16.694Z,22.00
2024-03-12T03:07:44.659Z,23.50
2024-03-12T03:10:13.830Z,20.00
2024-03-12T03:12:43.435Z,28.00
2024-03-12T03:15:15.004Z,25.00
2024-03-12T03:17:44.449Z,28.00
2024-03-12T03:20:15.720Z,27.00
2024-03-12T03:22:44.156Z,24.00
2024-03-12T03:25:13.591Z,24.00
2024-03-12T03:27:41.834Z,25.00
2024-03-12T03:30:14.038Z,24.00
2024-03-12T03:32:42.240Z,28.00
2024-03-12T03:35:10.254Z,24.00
2024-03-12T03:37:38.343Z,22.50
2024-03-12T03:40:12.530Z,25.00
2024-03-12T03:42:43.313Z,23.00
2024-03-12T03:45:11.364Z,20.50
2024-03-12T03:47:39.647Z,20.00
2024-03-12T03:50:11.500Z,25.00
2024-03-12T03:52:39.719Z,24.00
2024-03-12T03:55:08.589Z,22.00
2024-03-12T03:57:37.508Z,21.50
2024-03-12T04:00:14.373Z,26.00
2024-03-12T04:02:45.531Z,26.00
2024-03-12T04:05:14.008Z,25.00
2024-03-12T04:07:42.552Z,26.00
2024-03-12T04:10:13.901Z,27.00
2024-03-12T04:12:46.364Z,23.00
2024-03-12T04:15:14.662Z,22.00
2024-03-12T04:17:45.880Z,23.00
2024-03-12T04:20:14.360Z,28.50
2024-03-12T04:22:46.416Z,28.50
2024-03-12T04:25:17.023Z,22.00
2024-03-12T04:27:47.102Z,22.50
2024-03-12T04:30:15.454Z,25.50
2024-03-12T04:32:43.865Z,20.00
2024-03-12T04:35:13.911Z,24.00
2024-03-12T04:37:42.595Z,22.50
2024-03-12T04:40:13.347Z,27.00
2024-03-12T04:42:45.105Z,22.00
2024-03-12T04:45:13.276Z,22.00
2024-03-12T04:47:43.230Z,23.00
2024-03-12T04:50:15.687Z,18.00
2024-03-12T04:52:43.932Z,22.50
2024-03-12T04:55:14.344Z,19.50
2024-03-12T04:57:43.272Z,23.00
2024-03-12T05:00:21.076Z,24.00
2024-03-12T05:02:51.039Z,14.00
2024-03-12T05:05:20.555Z,22.00
2024-03-12T05:07:49.420Z,20.00
2024-03-12T05:10:18.978Z,23.00
2024-03-12T05:12:47.471Z,23.00
2024-03-12T05:15:15.755Z,21.00
2024-03-12T05:17:44.281Z,25.00
2024-03-12T05:20:16.563Z,18.00
2024-03-12T05:22:47.757Z,21.00
2024-03-12T05:25:27.788Z,21.00
2024-03-12T05:27:55.744Z,19.00
2024-03-12T05:30:25.035Z,23.00
2024-03-12T05:32:55.473Z,18.00
2024-03-12T05:35:24.618Z,24.00
2024-03-12T05:38:04.675Z,19.00
2024-03-12T05:40:44.516Z,22.00
2024-03-12T05:43:32.487Z,21.00
2024-03-12T05:46:19.500Z,22.00
2024-03-12T05:48:53.940Z,24.00
2024-03-12T05:51:22.027Z,19.00
2024-03-12T05:53:50.314Z,22.00
2024-03-12T05:56:19.588Z,22.00
2024-03-12T05:58:48.358Z,18.00
2024-03-12T06:01:17.408Z,24.50
2024-03-12T06:03:45.811Z,27.00
2024-03-12T06:06:14.342Z,23.00
2024-03-12T06:08:42.537Z,21.00
2024-03-12T06:11:10.657Z,21.00
2024-03-12T06:13:39.492Z,23.50
2024-03-12T06:16:08.844Z,22.00
2024-03-12T06:18:37.027Z,21.00
2024-03-12T06:21:07.404Z,24.00
2024-03-12T06:23:36.225Z,28.50
2024-03-12T06:26:06.084Z,24.00
2024-03-12T06:28:34.471Z,27.50
2024-03-12T06:31:05.728Z,26.00
2024-03-12T06:33:34.660Z,29.50
2024-03-12T06:36:03.570Z,28.00
2024-03-12T06:38:31.553Z,30.00
2024-03-12T06:40:59.981Z,26.00
2024-03-12T06:43:27.912Z,22.50
2024-03-12T06:45:56.105Z,27.00
2024-03-12T06:48:24.046Z,23.50
2024-03-12T06:50:52.217Z,25.00
2024-03-12T06:53:21.350Z,24.50
2024-03-12T06:55:49.462Z,28.00
2024-03-12T06:58:20.592Z,26.50
2024-03-12T07:00:52.042Z,28.00
2024-03-12T07:03:23.502Z,27.00
2024-03-12T07:05:52.298Z,26.00
2024-03-12T07:08:22.936Z,29.00
2024-03-12T07:10:52.024Z,22.00
2024-03-12T07:13:24.570Z,24.00
2024-03-12T07:15:52.880Z,28.00
2024-03-12T07:18:22.699Z,27.00
2024-03-12T07:20:53.886Z,27.00
2024-03-12T07:23:22.155Z,24.00
2024-03-12T07:25:51.124Z,28.00
2024-03-12T07:28:22.077Z,25.00
2024-03-12T07:30:52.569Z,27.50
2024-03-12T07:35:48.384Z,31.00
2024-03-12T07:38:16.281Z,28.50
2024-03-12T07:40:45.180Z,25.50
2024-03-12T07:43:13.227Z,26.00
2024-03-12T07:45:47.836Z,21.00
2024-03-12T07:48:16.061Z,23.00
2024-03-12T07:50:44.720Z,22.00
2024-03-12T07:53:12.685Z,20.00
2024-03-12T07:55:43.485Z,25.00
2024-03-12T07:58:12.454Z,26.67
2024-03-12T08:00:40.580Z,24.67
2024-03-12T08:03:08.765Z,26.50
2024-03-12T08:05:36.805Z,21.50
2024-03-12T08:08:07.175Z,26.00
2024-03-12T08:10:35.147Z,21.00
2024-03-12T08:13:03.368Z,20.00
2024-03-12T08:15:32.230Z,23.00
2024-03-12T08:18:10.122Z,22.00
2024-03-12T08:20:47.342Z,20.00
2024-03-12T08:23:16.012Z,23.00
2024-03-12T08:25:55.166Z,22.00
2024-03-12T08:28:27.477Z,23.00
2024-03-12T08:30:59.747Z,22.00
2024-03-12T08:33:30.970Z,22.00
2024-03-12T08:35:58.956Z,24.00
2024-03-12T08:38:29.905Z,30.00
2024-03-12T08:40:57.887Z,26.00
2024-03-12T08:43:26.122Z,32.00
2024-03-12T08:45:54.208Z,27.00
2024-03-12T08:48:22.947Z,24.50
2024-03-12T08:50:50.819Z,26.00
2024-03-12T08:53:18.681Z,25.00
2024-03-12T08:55:46.657Z,28.00
2024-03-12T08:58:14.672Z,26.00
2024-03-12T09:00:42.978Z,25.00
2024-03-12T09:03:11.103Z,23.00
2024-03-12T09:05:39.235Z,28.00
2024-03-12T09:08:07.459Z,24.00
2024-03-12T09:10:35.546Z,23.00
2024-03-12T09:13:07.773Z,24.00
2024-03-12T09:15:35.863Z,28.00
2024-03-12T09:18:07.851Z,24.00
2024-03-12T09:20:37.928Z,28.50
2024-03-12T09:23:06.559Z,20.00
2024-03-12T09:25:34.646Z,23.00
2024-03-12T09:28:02.815Z,20.00
2024-03-12T09:30:30.954Z,24.50
2024-03-12T09:32:59.066Z,23.00
2024-03-12T09:35:27.409Z,17.50
2024-03-12T09:37:57.141Z,21.00
2024-03-12T09:40:25.305Z,25.00
2024-03-12T09:42:57.198Z,24.00
2024-03-12T09:45:25.834Z,22.00
2024-03-12T09:47:54.029Z,24.00
2024-03-12T09:50:24.649Z,24.00
2024-03-12T09:52:54.142Z,27.50
2024-03-12T09:55:23.691Z,20.00
2024-03-12T09:57:52.645Z,23.00
2024-03-12T10:00:24.093Z,22.00
2024-03-12T10:02:52.753Z,18.00
2024-03-12T10:05:24.661Z,20.00
2024-03-12T10:08:15.534Z,22.00
2024-03-12T10:10:48.472Z,22.50
2024-03-12T10:13:19.330Z,21.00
2024-03-12T10:15:52.827Z,27.00
2024-03-12T10:18:22.408Z,26.00
2024-03-12T10:20:57.471Z,26.00
2024-03-12T10:23:30.972Z,30.00
2024-03-12T10:26:12.770Z,27.00
2024-03-12T10:31:11.782Z,29.00
2024-03-12T10:33:51.861Z,24.50
2024-03-12T10:36:32.705Z,22.00
2024-03-12T10:39:01.154Z,23.00
2024-03-12T10:44:08.897Z,25.00
2024-03-12T10:46:44.925Z,28.00
2024-03-12T10:51:44.390Z,33.00
2024-03-12T10:54:18.021Z,27.50
2024-03-12T10:56:47.395Z,22.50
2024-03-12T10:59:17.703Z,30.00
2024-03-12T11:01:46.450Z,32.00
2024-03-12T11:04:16.296Z,32.00
2024-03-12T11:06:49.390Z,29.50
2024-03-12T11:09:23.282Z,34.50
2024-03-12T11:11:51.725Z,33.00
2024-03-12T11:14:20.352Z,29.00
2024-03-12T11:16:48.488Z,29.33
2024-03-12T11:19:26.399Z,33.50
2024-03-12T11:22:02.646Z,30.00
2024-03-12T11:24:50.163Z,31.00
2024-03-12T11:27:28.233Z,30.67
2024-03-12T11:30:05.404Z,34.00
2024-03-12T11:32:41.649Z,34.00
2024-03-12T11:35:18.818Z,34.00
2024-03-12T11:38:02.858Z,35.00
2024-03-12T11:40:33.770Z,35.00
2024-03-12T11:43:02.448Z,35.50
2024-03-12T11:45:49.060Z,35.00
2024-03-12T11:48:22.513Z,34.00
2024-03-12T11:50:59.442Z,34.00
2024-03-12T11:53:36.846Z,37.67
2024-03-12T11:56:09.608Z,34.50
2024-03-12T11:58:48.998Z,37.00
2024-03-12T12:01:22.886Z,36.50
2024-03-12T12:04:01.177Z,35.00
2024-03-12T12:06:31.329Z,34.00
2024-03-12T12:09:06.716Z,36.00
2024-03-12T12:11:38.971Z,34.00
2024-03-12T12:14:10.712Z,32.00
2024-03-12T12:16:40.726Z,35.00
2024-03-12T12:19:16.184Z,40.00
2024-03-12T12:21:53.063Z,35.00
2024-03-12T12:24:26.617Z,34.50
2024-03-12T12:26:57.306Z,34.50
2024-03-12T12:29:28.031Z,27.00
2024-03-12T12:31:56.448Z,35.00
2024-03-12T12:34:29.919Z,40.00
2024-03-12T12:36:59.710Z,36.00
2024-03-12T12:39:40.102Z,37.00
2024-03-12T12:42:11.957Z,37.00
2024-03-12T12:44:41.391Z,36.00
2024-03-12T12:47:11.615Z,41.00
2024-03-12T12:49:40.271Z,43.00
2024-03-12T12:52:08.559Z,43.00
2024-03-12T12:54:40.720Z,49.00
2024-03-12T12:57:12.002Z,49.00
2024-03-12T12:59:41.244Z,49.50
2024-03-12T13:02:22.349Z,44.50
2024-03-12T13:04:58.192Z,42.50
2024-03-12T13:07:34.536Z,43.00
2024-03-12T13:10:20.191Z,47.00
2024-03-12T13:12:49.071Z,46.00
2024-03-12T13:15:27.447Z,57.50
2024-03-12T13:17:55.748Z,57.00
2024-03-12T13:20:25.624Z,55.00
2024-03-12T13:22:54.504Z,51.00
2024-03-12T13:25:22.748Z,42.00
2024-03-12T13:27:50.691Z,42.50
2024-03-12T13:30:18.737Z,53.00
2024-03-12T13:32:48.194Z,52.00
2024-03-12T13:35:16.376Z,49.00
2024-03-12T13:37:46.282Z,47.00
2024-03-12T13:40:16.293Z,43.00
2024-03-12T13:42:44.518Z,40.50
2024-03-12T13:47:40.917Z,36.00
2024-03-12T13:50:09.301Z,36.00
2024-03-12T13:52:37.261Z,36.00
2024-03-12T13:55:06.199Z,31.50
2024-03-12T13:57:34.173Z,33.50
2024-03-12T14:00:02.110Z,33.50
2024-03-12T14:02:41.432Z,32.00
2024-03-12T14:05:10.207Z,36.00
2024-03-12T14:07:38.235Z,33.00
2024-03-12T14:10:09.286Z,33.50
2024-03-12T14:12:38.357Z,34.00
2024-03-12T14:15:07.202Z,33.00
2024-03-12T14:17:35.095Z,36.00
2024-03-12T14:20:09.775Z,34.50
2024-03-12T14:22:40.565Z,38.00
2024-03-12T14:25:09.221Z,40.00
2024-03-12T14:27:37.253Z,36.00
2024-03-12T14:30:05.993Z,35.50
2024-03-12T14:35:02.844Z,41.00
2024-03-12T14:37:31.690Z,14.00
2024-03-12T14:40:03.188Z,32.00
2024-03-12T14:44:59.104Z,33.00
2024-03-12T14:47:27.070Z,30.00
2024-03-12T14:49:56.178Z,30.00
2024-03-12T14:52:24.192Z,31.00
2024-03-12T14:54:54.539Z,30.00
2024-03-12T14:57:22.791Z,30.00
2024-03-12T14:59:52.177Z,26.50
2024-03-12T15:02:21.274Z,39.00
2024-03-12T15:04:49.607Z,39.50
2024-03-12T15:07:18.642Z,43.00
2024-03-12T15:09:48.679Z,45.00
2024-03-12T15:12:17.507Z,46.00
2024-03-12T15:14:48.041Z,43.00
2024-03-12T15:17:16.942Z,45.00
2024-03-12T15:19:47.901Z,43.00
2024-03-12T15:22:15.891Z,47.00
2024-03-12T15:24:45.090Z,43.50
2024-03-12T15:27:14.102Z,42.33
2024-03-12T15:29:43.362Z,40.50
2024-03-12T15:32:12.303Z,42.00
2024-03-12T15:34:40.757Z,39.00
2024-03-12T15:37:10.888Z,33.50
2024-03-12T15:39:38.841Z,33.00
2024-03-12T15:42:07.512Z,35.00
2024-03-12T15:44:36.214Z,31.00
2024-03-12T15:47:04.363Z,27.00
2024-03-12T15:49:32.290Z,26.00
2024-03-12T15:52:00.329Z,33.00
2024-03-12T15:54:28.522Z,35.50
2024-03-12T15:56:56.409Z,36.50
2024-03-12T15:59:24.309Z,43.00
2024-03-12T16:01:52.335Z,40.00
2024-03-12T16:04:21.354Z,33.50
2024-03-12T16:06:49.412Z,35.00
2024-03-12T16:09:22.135Z,39.00
2024-03-12T16:11:50.458Z,38.00
2024-03-12T16:14:18.392Z,39.00
2024-03-12T16:16:46.285Z,36.00
2024-03-12T16:19:21.306Z,38.00
2024-03-12T16:21:51.023Z,38.00
2024-03-12T16:24:18.949Z,21.00
2024-03-12T16:26:46.859Z,38.00
2024-03-12T16:29:14.713Z,40.50
2024-03-12T16:31:43.773Z,35.00
2024-03-12T16:34:12.012Z,40.00
2024-03-12T16:36:40.174Z,36.00
2024-03-12T16:39:10.321Z,37.50
2024-03-12T16:41:40.450Z,35.50
2024-03-12T16:44:08.590Z,37.00
2024-03-12T16:46:36.737Z,45.33
2024-03-12T16:49:05.334Z,44.50
2024-03-12T16:51:35.315Z,41.00
2024-03-12T16:54:03.682Z,40.00
2024-03-12T16:56:33.804Z,40.00
2024-03-12T16:59:05.648Z,36.00
2024-03-12T17:01:37.818Z,35.50
2024-03-12T17:04:06.809Z,30.00
2024-03-12T17:06:35.645Z,29.00
2024-03-12T17:09:04.964Z,28.00
2024-03-12T17:11:33.858Z,32.00
2024-03-12T17:14:04.206Z,34.50
2024-03-12T17:16:33.015Z,37.00
2024-03-12T17:19:05.351Z,40.00
2024-03-12T17:21:34.714Z,38.50
2024-03-12T17:24:02.975Z,43.00
2024-03-12T17:26:37.986Z,45.00
2024-03-12T17:29:10.968Z,44.50
2024-03-12T17:31:41.014Z,46.50
2024-03-12T17:34:09.329Z,49.50
2024-03-12T17:36:40.538Z,38.00
2024-03-12T17:39:13.223Z,47.00
2024-03-12T17:41:41.555Z,44.00
2024-03-12T17:44:09.939Z,41.50
2024-03-12T17:49:09.561Z,38.50
2024-03-12T17:51:37.761Z,46.50
2024-03-12T17:54:08.174Z,42.00
2024-03-12T17:56:37.724Z,51.00
2024-03-12T17:59:06.015Z,56.00
2024-03-12T18:01:34.278Z,52.00
2024-03-12T18:04:02.635Z,51.00
2024-03-12T18:06:34.258Z,48.00
2024-03-12T18:09:04.266Z,47.00
2024-03-12T18:11:32.557Z,43.00
2024-03-12T18:14:00.826Z,43.00
2024-03-12T18:16:28.864Z,40.00
2024-03-12T18:18:58.695Z,44.00
2024-03-12T18:21:26.739Z,24.00
2024-03-12T18:23:58.804Z,38.50
2024-03-12T18:26:28.736Z,34.00
2024-03-12T18:28:58.120Z,36.00
2024-03-12T18:31:29.162Z,37.00
2024-03-12T18:33:58.332Z,26.00
2024-03-12T18:36:26.488Z,37.00
2024-03-12T18:38:55.872Z,35.00
2024-03-12T18:41:24.736Z,38.00
2024-03-12T18:43:52.688Z,38.00
2024-03-12T18:46:21.949Z,37.50
2024-03-12T18:48:50.138Z,35.00
2024-03-12T18:51:19.737Z,35.00
2024-03-12T18:53:48.085Z,38.00
2024-03-12T18:56:16.468Z,37.00
2024-03-12T18:58:45.400Z,37.50
2024-03-12T19:01:15.902Z,42.00
2024-03-12T19:03:51.472Z,36.00
2024-03-12T19:06:26.343Z,39.00
2024-03-12T19:08:56.779Z,37.00
2024-03-12T19:11:25.958Z,40.00
2024-03-12T19:13:55.919Z,41.00
2024-03-12T19:16:26.735Z,33.00
2024-03-12T19:18:55.016Z,39.00
2024-03-12T19:21:23.382Z,43.00
2024-03-12T19:23:52.527Z,37.00
2024-03-12T19:26:20.856Z,36.00
2024-03-12T19:28:48.767Z,29.00
2024-03-12T19:31:17.376Z,26.00
2024-03-12T19:33:45.608Z,28.00
2024-03-12T19:36:22.975Z,21.50
2024-03-12T19:38:51.593Z,29.00
2024-03-12T19:41:20.142Z,27.00
2024-03-12T19:43:50.634Z,30.00
2024-03-12T19:46:20.471Z,29.50
2024-03-12T19:48:49.613Z,30.33
2024-03-12T19:53:48.115Z,31.00
2024-03-12T19:58:44.557Z,35.00
2024-03-12T20:01:16.929Z,34.67
2024-03-12T20:03:45.614Z,30.00
2024-03-12T20:06:14.536Z,30.00
2024-03-12T20:08:42.570Z,25.33
2024-03-12T20:11:11.586Z,32.33
2024-03-12T20:13:39.571Z,28.50
2024-03-12T20:16:12.480Z,32.00
2024-03-12T20:18:42.564Z,27.00
2024-03-12T20:21:10.627Z,29.00
2024-03-12T20:23:38.731Z,32.50
2024-03-12T20:26:07.612Z,27.50
2024-03-12T20:28:35.801Z,26.00
2024-03-12T20:31:04.001Z,21.00
2024-03-12T20:33:32.469Z,22.00
2024-03-12T20:36:02.618Z,27.00
2024-03-12T20:38:31.723Z,27.00
2024-03-12T20:40:59.979Z,20.50
2024-03-12T20:43:28.810Z,25.50
2024-03-12T20:45:57.299Z,19.00
2024-03-12T20:48:25.414Z,19.00
2024-03-12T20:50:53.568Z,23.00
2024-03-12T20:53:21.948Z,21.00
2024-03-12T20:55:50.127Z,17.00
2024-03-12T20:58:19.201Z,24.50
2024-03-12T21:00:47.988Z,18.00
2024-03-12T21:03:16.021Z,22.50
2024-03-12T21:05:44.232Z,21.00
2024-03-12T21:08:13.942Z,20.00
2024-03-12T21:10:44.844Z,17.00
2024-03-12T21:13:13.067Z,19.00
2024-03-12T21:15:41.080Z,20.00
2024-03-12T21:18:09.121Z,22.00
2024-03-12T21:20:37.076Z,22.00
2024-03-12T21:23:07.205Z,23.00
2024-03-12T21:25:35.441Z,17.50
2024-03-12T21:28:04.364Z,17.00
2024-03-12T21:30:32.831Z,20.50
2024-03-12T21:33:01.154Z,19.00
2024-03-12T21:35:30.238Z,23.50
2024-03-12T21:37:58.767Z,20.00
2024-03-12T21:40:28.169Z,20.00
2024-03-12T21:42:56.340Z,23.00
2024-03-12T21:45:24.351Z,19.00
2024-03-12T21:47:53.955Z,16.50
2024-03-12T21:50:21.949Z,13.00
2024-03-12T21:52:49.845Z,17.00
2024-03-12T21:55:17.807Z,15.00
2024-03-12T21:57:45.743Z,19.00
2024-03-12T22:00:25.470Z,20.00
2024-03-12T22:02:53.621Z,22.00
2024-03-12T22:05:21.676Z,25.00
2024-03-12T22:07:51.007Z,26.50
2024-03-12T22:10:19.516Z,25.00
2024-03-12T22:12:48.493Z,21.00
2024-03-12T22:15:17.013Z,21.00
2024-03-12T22:17:49.505Z,19.00
2024-03-12T22:20:20.026Z,19.00
2024-03-12T22:22:49.572Z,20.50
2024-03-12T22:25:19.515Z,14.00
2024-03-12T22:27:49.682Z,20.00
2024-03-12T22:30:18.793Z,17.00
2024-03-12T22:32:48.542Z,18.00
2024-03-12T22:35:16.973Z,9.00
2024-03-12T22:37:49.003Z,21.00
2024-03-12T22:40:19.926Z,15.00
2024-03-12T22:42:49.312Z,16.67
2024-03-12T22:45:17.689Z,16.00
2024-03-12T22:47:45.976Z,21.00
2024-03-12T22:50:15.417Z,16.50
2024-03-12T22:52:46.739Z,19.00
2024-03-12T22:55:15.295Z,17.00
2024-03-12T22:57:43.689Z,20.00
2024-03-12T23:00:35.386Z,21.00
2024-03-12T23:03:04.503Z,19.00
2024-03-12T23:05:36.786Z,20.00
2024-03-12T23:08:06.651Z,20.00
2024-03-12T23:10:36.578Z,19.00
2024-03-12T23:13:05.213Z,20.00
2024-03-12T23:15:36.162Z,21.50
2024-03-12T23:18:05.509Z,14.00
2024-03-12T23:20:35.572Z,15.50
2024-03-12T23:23:03.823Z,17.67
2024-03-12T23:25:32.020Z,18.00
2024-03-12T23:28:00.885Z,18.00
2024-03-12T23:30:29.009Z,20.50
2024-03-12T23:32:59.858Z,13.00
2024-03-12T23:35:28.749Z,16.00
2024-03-12T23:37:59.952Z,24.00
2024-03-12T23:40:29.302Z,20.00
2024-03-12T23:42:57.766Z,14.50
2024-03-12T23:45:27.718Z,19.00
2024-03-12T23:47:58.598Z,17.00
2024-03-12T23:50:26.767Z,15.00
2024-03-12T23:52:56.012Z,16.00
2024-03-12T23:55:24.398Z,15.50
2024-03-12T23:58:06.281Z,17.00
